Terminal Aerodrome Forecast
Issued by NWS

Home | Current Version | Previous Version | Text Only | Print | Product List | Glossary On
Versions: 1 2 3 4 5 6 7 8 9 10 11 12 13 14
000
FTUS43 KIND 290531
TAFHUF
TAF
KHUF 290531Z 2906/3006 13004KT P6SM SCT100 BKN150
     FM291100 16004KT P6SM SCT040 BKN100
     FM291500 20008KT P6SM BKN040 PROB30 2922/3004 5SM -TSRA
      BKN035CB=

USA.gov is the U.S. government's official web portal to all federal, state and local government web resources and services.